Time;durP1;ratioP1;P1;durP2;ratioP2;P2;SDS_P1;SDS_P2;PMS_P1;PMS_P2;Temp;Humidity;BMP_temperature;BMP_pressure;BME280_temperature;BME280_humidity;BME280_pressure;Samples;Min_cycle;Max_cycle;Signal;HPM_P1;HPM_P2
2021/06/28 00:01:22;;;;;;;4.20;3.90;;;18.90;99.90;;;;;;6220718;23;20432;-87
2021/06/28 00:03:53;;;;;;;5.00;4.60;;;18.90;99.90;;;;;;6221254;23;20411;-87
2021/06/28 00:06:21;;;;;;;5.17;4.77;;;18.90;99.90;;;;;;6222930;23;20446;-87
2021/06/28 00:08:49;;;;;;;5.63;5.23;;;18.80;99.90;;;;;;6222152;23;20420;-86
2021/06/28 00:11:18;;;;;;;5.93;5.50;;;18.80;99.90;;;;;;6224079;23;20468;-88
2021/06/28 00:13:49;;;;;;;5.20;4.80;;;18.90;99.90;;;;;;6224711;23;20732;-87
2021/06/28 00:16:17;;;;;;;4.27;3.97;;;18.80;99.90;;;;;;6224294;23;20413;-87
2021/06/28 00:28:54;;;;;;;4.10;3.90;;;18.70;99.90;;;;;;5933346;24;20425;-85
2021/06/28 00:31:23;;;;;;;5.00;4.70;;;18.70;99.90;;;;;;5915667;23;20445;-87
2021/06/28 00:33:50;;;;;;;4.57;4.17;;;18.70;99.90;;;;;;6175018;23;20415;-85
2021/06/28 00:36:17;;;;;;;4.57;4.17;;;18.70;99.90;;;;;;6227001;23;20498;-86
2021/06/28 00:38:43;;;;;;;4.20;3.90;;;18.60;99.90;;;;;;6225839;23;20444;-86
2021/06/28 00:41:10;;;;;;;4.93;4.53;;;18.70;99.90;;;;;;6227230;23;20958;-86
2021/06/28 00:43:37;;;;;;;4.33;4.00;;;18.60;99.90;;;;;;6226210;23;20408;-86
2021/06/28 00:46:04;;;;;;;5.83;4.40;;;18.60;99.90;;;;;;6226921;23;20412;-86
2021/06/28 00:48:32;;;;;;;5.83;4.50;;;18.60;99.90;;;;;;6226873;23;20400;-85
2021/06/28 00:50:59;;;;;;;4.90;4.60;;;18.60;99.90;;;;;;6225557;23;20552;-87
2021/06/28 00:53:28;;;;;;;4.73;4.40;;;18.60;99.90;;;;;;6225742;23;20420;-86
2021/06/28 00:56:08;;;;;;;4.90;4.50;;;18.70;99.90;;;;;;6226533;23;20497;-85
2021/06/28 00:58:36;;;;;;;5.00;4.70;;;18.60;99.90;;;;;;6225642;23;20466;-86
2021/06/28 01:01:02;;;;;;;5.00;4.60;;;18.60;99.90;;;;;;6225445;23;20432;-86
2021/06/28 01:03:29;;;;;;;4.77;4.30;;;18.70;99.90;;;;;;6225090;23;20412;-86
2021/06/28 01:05:59;;;;;;;4.30;4.00;;;18.70;99.90;;;;;;6225260;23;20468;-86
2021/06/28 01:08:26;;;;;;;5.67;4.43;;;18.70;99.90;;;;;;6224927;23;20420;-86
2021/06/28 01:10:53;;;;;;;5.00;4.57;;;18.60;99.90;;;;;;6224415;23;20447;-86
2021/06/28 01:13:20;;;;;;;4.00;3.70;;;18.60;99.90;;;;;;6224982;23;20416;-86
2021/06/28 01:15:47;;;;;;;4.23;3.93;;;18.70;99.90;;;;;;6227949;23;20464;-83
2021/06/28 01:18:15;;;;;;;4.67;4.27;;;18.70;99.90;;;;;;6230081;23;20508;-85
2021/06/28 01:20:44;;;;;;;4.33;4.03;;;18.80;99.90;;;;;;6229571;23;20437;-85
2021/06/28 01:23:18;;;;;;;4.50;4.20;;;18.80;99.90;;;;;;6223455;23;20401;-86
2021/06/28 01:25:45;;;;;;;4.60;4.20;;;19.00;99.90;;;;;;6223448;23;20405;-85
2021/06/28 01:28:13;;;;;;;4.53;4.23;;;19.00;99.90;;;;;;6222884;23;20414;-86
2021/06/28 01:30:40;;;;;;;4.47;4.17;;;19.10;99.90;;;;;;6222864;23;20785;-85
2021/06/28 01:33:07;;;;;;;4.77;4.37;;;19.20;99.90;;;;;;6223169;23;20503;-86
2021/06/28 01:35:34;;;;;;;4.73;4.20;;;19.20;99.90;;;;;;6222506;23;20499;-86
2021/06/28 01:38:01;;;;;;;6.30;5.90;;;19.30;99.90;;;;;;6222348;23;20524;-85
2021/06/28 01:40:29;;;;;;;7.90;5.10;;;19.30;99.90;;;;;;6222153;23;20407;-85
2021/06/28 01:42:56;;;;;;;4.87;4.47;;;19.40;99.90;;;;;;6220695;23;20500;-87
2021/06/28 01:45:25;;;;;;;5.23;4.80;;;19.40;99.90;;;;;;6219636;23;20409;-86
2021/06/28 01:47:54;;;;;;;4.87;4.57;;;19.40;99.90;;;;;;6220869;23;20412;-86
2021/06/28 01:50:23;;;;;;;5.50;5.10;;;19.40;99.90;;;;;;6221470;23;20408;-85
2021/06/28 01:52:50;;;;;;;5.07;4.50;;;19.50;99.90;;;;;;6222265;23;20417;-86
2021/06/28 01:55:19;;;;;;;5.47;4.97;;;19.50;99.90;;;;;;6222997;23;20416;-86
2021/06/28 01:57:48;;;;;;;4.70;4.40;;;19.50;99.90;;;;;;6222250;23;20413;-85
2021/06/28 02:00:18;;;;;;;4.83;4.50;;;19.50;99.90;;;;;;6221511;23;20408;-85
2021/06/28 02:02:57;;;;;;;5.13;4.83;;;19.40;99.90;;;;;;6220949;23;20408;-85
2021/06/28 02:08:46;;;;;;;4.67;4.27;;;19.50;99.90;;;;;;6222285;23;20507;-86
2021/06/28 02:11:13;;;;;;;4.33;4.03;;;19.50;99.90;;;;;;6222211;23;20977;-86
2021/06/28 02:13:41;;;;;;;5.23;4.17;;;19.40;99.90;;;;;;6220864;23;20415;-84
2021/06/28 02:16:08;;;;;;;5.60;5.10;;;19.40;99.90;;;;;;6221611;23;20411;-86
2021/06/28 02:18:35;;;;;;;5.27;4.93;;;19.40;99.90;;;;;;6221276;23;20967;-86
2021/06/28 02:21:02;;;;;;;4.33;4.00;;;19.40;99.90;;;;;;6220627;23;20518;-85
2021/06/28 02:23:32;;;;;;;4.37;4.07;;;19.40;99.90;;;;;;6220238;23;20401;-86
2021/06/28 02:26:02;;;;;;;4.30;4.00;;;19.40;99.90;;;;;;6220058;23;20399;-85
2021/06/28 02:28:32;;;;;;;5.00;4.60;;;19.30;99.90;;;;;;6219145;23;20480;-85
2021/06/28 02:31:01;;;;;;;5.27;4.77;;;19.30;99.90;;;;;;6218826;23;20432;-86
2021/06/28 02:33:28;;;;;;;4.87;4.47;;;19.20;99.90;;;;;;6218818;23;20397;-85
2021/06/28 02:35:56;;;;;;;4.17;3.93;;;19.20;99.90;;;;;;6219110;23;20378;-85
2021/06/28 02:38:23;;;;;;;4.83;4.50;;;19.10;99.90;;;;;;6218808;23;20449;-85
2021/06/28 02:40:50;;;;;;;5.50;4.30;;;19.10;99.90;;;;;;6217866;23;20510;-85
2021/06/28 02:43:17;;;;;;;5.43;5.03;;;19.10;99.90;;;;;;6218328;23;20872;-86
2021/06/28 02:45:45;;;;;;;5.50;5.10;;;19.10;99.90;;;;;;6219074;23;20970;-86
2021/06/28 02:48:13;;;;;;;5.50;5.10;;;19.10;99.90;;;;;;6218826;23;20416;-85
2021/06/28 02:50:40;;;;;;;4.87;4.47;;;18.90;99.90;;;;;;6218337;23;20427;-86
2021/06/28 02:53:07;;;;;;;5.33;4.90;;;18.90;99.90;;;;;;6217912;23;20415;-84
2021/06/28 02:55:34;;;;;;;5.23;4.77;;;18.80;99.90;;;;;;6218800;23;20487;-86
2021/06/28 02:58:01;;;;;;;4.37;3.97;;;18.70;99.90;;;;;;6218466;23;20419;-85
2021/06/28 03:00:28;;;;;;;4.90;4.60;;;18.60;99.90;;;;;;6217864;23;20846;-85
2021/06/28 03:02:59;;;;;;;5.30;4.30;;;18.60;99.90;;;;;;6219697;23;21097;-85
2021/06/28 03:05:27;;;;;;;4.83;4.37;;;18.80;99.90;;;;;;6219909;23;20404;-86
2021/06/28 03:07:54;;;;;;;5.00;4.60;;;18.80;99.90;;;;;;6219136;23;20416;-86
2021/06/28 03:10:21;;;;;;;4.70;4.30;;;18.90;99.90;;;;;;6218841;23;20416;-86
2021/06/28 03:12:48;;;;;;;5.10;4.80;;;19.00;99.90;;;;;;6219185;23;20426;-85
2021/06/28 03:15:17;;;;;;;5.70;5.20;;;19.00;99.90;;;;;;6219177;23;20748;-85
2021/06/28 03:17:45;;;;;;;4.60;4.30;;;19.10;99.90;;;;;;6218714;23;20424;-86
2021/06/28 03:20:14;;;;;;;5.30;5.00;;;19.10;99.90;;;;;;6219225;23;20458;-86
2021/06/28 03:22:43;;;;;;;4.90;4.60;;;19.10;99.90;;;;;;6218855;23;20422;-85
2021/06/28 03:25:13;;;;;;;6.57;6.13;;;19.20;99.90;;;;;;6218701;23;20412;-86
2021/06/28 03:27:43;;;;;;;5.37;4.97;;;19.10;99.90;;;;;;6219001;23;20409;-85
2021/06/28 03:30:12;;;;;;;4.60;4.30;;;19.10;99.90;;;;;;6218659;23;20395;-86
2021/06/28 03:32:40;;;;;;;5.60;5.10;;;19.20;99.90;;;;;;6217576;23;20443;-85
2021/06/28 03:35:08;;;;;;;5.13;4.63;;;19.20;99.90;;;;;;6217819;23;20405;-86
2021/06/28 03:37:35;;;;;;;5.47;5.00;;;19.20;99.90;;;;;;6218587;23;20486;-85
2021/06/28 03:40:04;;;;;;;4.13;3.83;;;19.30;99.90;;;;;;6218029;23;20519;-85
2021/06/28 03:42:31;;;;;;;5.53;5.13;;;19.30;99.90;;;;;;6218222;23;20432;-86
2021/06/28 03:44:58;;;;;;;5.80;5.40;;;19.30;99.90;;;;;;6218240;23;20413;-85
2021/06/28 03:47:26;;;;;;;4.93;4.57;;;19.30;99.90;;;;;;6217730;23;20427;-86
2021/06/28 03:49:53;;;;;;;5.20;4.80;;;19.40;99.90;;;;;;6217730;23;20417;-85
2021/06/28 03:52:20;;;;;;;5.00;4.60;;;19.40;99.90;;;;;;6217674;23;20436;-85
2021/06/28 03:54:47;;;;;;;4.30;4.00;;;19.50;99.90;;;;;;6218262;23;20415;-85
2021/06/28 03:57:17;;;;;;;5.30;4.90;;;19.50;99.90;;;;;;6217834;23;20959;-86
2021/06/28 03:59:44;;;;;;;4.43;4.13;;;19.40;99.90;;;;;;6217463;23;20436;-86
2021/06/28 04:02:11;;;;;;;5.53;5.13;;;19.50;99.90;;;;;;6223336;23;20446;-88
2021/06/28 04:04:47;;;;;;;5.50;5.10;;;19.50;99.90;;;;;;6223081;23;20416;-87
2021/06/28 04:07:29;;;;;;;5.87;5.47;;;19.50;99.90;;;;;;6222086;23;20580;-87
2021/06/28 04:09:56;;;;;;;5.43;5.03;;;19.60;99.90;;;;;;6222081;23;20393;-86
2021/06/28 04:12:24;;;;;;;4.70;4.40;;;19.60;99.90;;;;;;6221467;23;20964;-87
2021/06/28 04:14:52;;;;;;;5.40;5.03;;;19.60;99.90;;;;;;6222033;23;20423;-87
2021/06/28 04:17:19;;;;;;;5.43;4.90;;;19.60;99.90;;;;;;6221141;23;20434;-87
2021/06/28 04:19:46;;;;;;;6.40;5.80;;;19.60;99.90;;;;;;6222014;23;20440;-87
2021/06/28 04:22:15;;;;;;;4.57;4.27;;;19.60;99.90;;;;;;6221690;23;20421;-87
2021/06/28 04:24:41;;;;;;;5.10;4.73;;;19.70;99.90;;;;;;6222213;23;20500;-88
2021/06/28 04:27:08;;;;;;;5.80;5.40;;;19.80;99.90;;;;;;6222522;23;20900;-87
2021/06/28 04:29:42;;;;;;;5.83;5.23;;;19.80;99.90;;;;;;6222508;23;20487;-87
2021/06/28 04:32:09;;;;;;;4.50;4.20;;;19.80;99.90;;;;;;6223057;23;20509;-86
2021/06/28 04:34:42;;;;;;;5.63;4.77;;;19.90;99.90;;;;;;6223094;23;20411;-87
2021/06/28 04:37:16;;;;;;;4.57;4.27;;;19.80;99.90;;;;;;6222770;23;20467;-87
2021/06/28 04:39:44;;;;;;;4.67;4.27;;;19.90;99.90;;;;;;6222828;23;20467;-85
2021/06/28 04:42:11;;;;;;;5.03;4.63;;;19.90;99.90;;;;;;6220332;23;20445;-87
2021/06/28 04:44:39;;;;;;;4.40;4.10;;;19.90;99.90;;;;;;6220943;23;20416;-87
2021/06/28 04:47:06;;;;;;;5.63;5.13;;;19.80;99.90;;;;;;6221188;23;20497;-87
2021/06/28 04:49:33;;;;;;;5.40;5.00;;;19.80;99.90;;;;;;6221131;23;20412;-87
2021/06/28 04:52:01;;;;;;;4.90;4.50;;;19.90;99.90;;;;;;6221682;23;20500;-87
2021/06/28 04:54:27;;;;;;;5.40;5.00;;;19.80;99.90;;;;;;6220730;23;20447;-85
2021/06/28 04:56:54;;;;;;;5.60;5.20;;;19.70;99.90;;;;;;6223031;23;20405;-87
2021/06/28 04:59:21;;;;;;;4.80;4.40;;;19.70;99.90;;;;;;6222065;23;20523;-86
2021/06/28 05:01:49;;;;;;;4.90;4.50;;;19.70;99.90;;;;;;6220783;23;20962;-86
2021/06/28 05:04:16;;;;;;;5.20;4.80;;;19.70;99.90;;;;;;6220154;23;20416;-86
2021/06/28 05:06:43;;;;;;;4.93;4.63;;;19.70;99.90;;;;;;6218879;23;20409;-86
2021/06/28 05:09:10;;;;;;;5.40;5.00;;;19.70;99.90;;;;;;6219575;23;20428;-87
2021/06/28 05:11:37;;;;;;;4.70;4.30;;;19.70;99.90;;;;;;6218137;23;20977;-87
2021/06/28 05:14:06;;;;;;;5.70;5.03;;;19.80;99.90;;;;;;6224414;23;20397;-84
2021/06/28 05:16:33;;;;;;;6.10;5.60;;;19.80;99.90;;;;;;6224794;23;20493;-84
2021/06/28 05:19:03;;;;;;;5.37;4.97;;;19.80;99.90;;;;;;6226408;23;20400;-87
2021/06/28 05:21:31;;;;;;;5.50;5.13;;;19.80;99.90;;;;;;6219325;23;20472;-87
2021/06/28 05:23:58;;;;;;;5.77;5.27;;;19.70;99.90;;;;;;6219883;23;20432;-87
2021/06/28 05:26:25;;;;;;;6.30;5.90;;;19.60;99.90;;;;;;6221536;23;20400;-87
2021/06/28 05:28:51;;;;;;;6.93;6.53;;;19.70;99.90;;;;;;6220474;23;20475;-86
2021/06/28 05:31:20;;;;;;;6.30;5.80;;;19.70;99.90;;;;;;6220814;23;20432;-86
2021/06/28 05:34:00;;;;;;;;;;;;;;;;;;;;;
2021/06/28 05:43:32;;;;;;;5.37;4.97;;;19.90;99.90;;;;;;5927462;23;20548;-85
2021/06/28 05:46:21;;;;;;;6.80;6.30;;;20.10;99.90;;;;;;6156006;23;20389;-86
2021/06/28 05:48:58;;;;;;;6.33;5.77;;;20.20;99.90;;;;;;6195790;23;20791;-86
2021/06/28 05:51:35;;;;;;;5.53;5.10;;;20.20;99.90;;;;;;6218128;23;20436;-86
2021/06/28 05:54:10;;;;;;;5.00;4.60;;;20.20;99.90;;;;;;6218689;23;20389;-86
2021/06/28 05:57:11;;;;;;;4.90;4.47;;;20.30;99.90;;;;;;6218548;23;20403;-85
2021/06/28 06:00:08;;;;;;;;;;;;;;;;;;;;;
2021/06/28 06:03:04;;;;;;;6.50;4.63;;;20.50;99.90;;;;;;6150008;23;21164;-86
2021/06/28 06:09:38;;;;;;;;;;;;;;;;;;;;;
2021/06/28 06:15:45;;;;;;;6.07;5.60;;;20.80;99.90;;;;;;6212746;23;20412;-86
2021/06/28 06:21:55;;;;;;;4.07;3.77;;;21.00;99.90;;;;;;6015021;23;20460;-82
2021/06/28 06:24:28;;;;;;;3.90;3.57;;;21.10;99.90;;;;;;6207741;23;20467;-86
2021/06/28 06:30:46;;;;;;;4.17;3.90;;;21.20;99.90;;;;;;6218682;23;20489;-85
2021/06/28 06:33:17;;;;;;;4.30;4.00;;;21.30;99.90;;;;;;6162362;23;20413;-87
2021/06/28 06:35:46;;;;;;;4.60;4.20;;;21.40;99.90;;;;;;6218626;23;20466;-86
2021/06/28 06:38:12;;;;;;;3.47;3.27;;;21.50;99.90;;;;;;6218167;23;20411;-86
2021/06/28 06:40:41;;;;;;;3.70;3.50;;;21.60;99.90;;;;;;6218615;23;20790;-86
2021/06/28 06:43:07;;;;;;;3.73;3.43;;;21.70;99.90;;;;;;6218094;23;20416;-86
2021/06/28 06:45:34;;;;;;;3.23;2.93;;;21.80;99.90;;;;;;6218119;23;20754;-87
2021/06/28 06:48:01;;;;;;;3.40;3.10;;;21.90;99.90;;;;;;6222457;23;20414;-85
2021/06/28 06:50:28;;;;;;;3.80;3.50;;;22.00;99.90;;;;;;6219569;23;20511;-85
2021/06/28 06:52:55;;;;;;;4.10;3.80;;;22.10;99.90;;;;;;6218663;23;20749;-86
2021/06/28 06:55:22;;;;;;;2.93;2.73;;;22.10;99.90;;;;;;6219380;23;20403;-87
2021/06/28 06:57:50;;;;;;;2.80;2.60;;;22.20;99.90;;;;;;6218061;23;20415;-86
2021/06/28 07:00:19;;;;;;;2.90;2.70;;;22.20;99.90;;;;;;6218076;23;20469;-87
2021/06/28 07:02:46;;;;;;;4.00;3.70;;;22.30;99.90;;;;;;6216521;23;20406;-84
2021/06/28 07:05:14;;;;;;;3.90;3.60;;;22.40;99.90;;;;;;6217655;23;20414;-84
2021/06/28 07:07:41;;;;;;;3.63;3.40;;;22.50;99.90;;;;;;6218083;23;20411;-84
2021/06/28 07:10:09;;;;;;;3.83;3.53;;;22.50;99.90;;;;;;6218851;23;20412;-84
2021/06/28 07:12:36;;;;;;;3.97;3.67;;;22.60;99.90;;;;;;6217917;23;20765;-84
2021/06/28 07:15:05;;;;;;;4.57;3.80;;;22.70;99.90;;;;;;6216404;23;20411;-83
2021/06/28 07:17:32;;;;;;;4.17;3.20;;;22.80;99.90;;;;;;6214341;23;20424;-83
2021/06/28 07:19:59;;;;;;;4.27;3.97;;;22.90;99.90;;;;;;6215438;23;20779;-84
2021/06/28 07:22:26;;;;;;;3.73;3.47;;;23.00;99.90;;;;;;6215162;23;20437;-84
2021/06/28 07:24:52;;;;;;;3.57;3.33;;;23.10;99.90;;;;;;6215337;23;20393;-84
2021/06/28 07:27:19;;;;;;;3.03;2.83;;;23.10;99.90;;;;;;6214867;23;20394;-85
2021/06/28 07:29:46;;;;;;;3.63;3.43;;;23.20;99.90;;;;;;6216017;23;20897;-85
2021/06/28 07:32:14;;;;;;;4.40;4.03;;;23.30;99.90;;;;;;6216544;23;20458;-83
2021/06/28 07:34:41;;;;;;;3.30;3.10;;;23.40;99.90;;;;;;6216366;23;20413;-84
2021/06/28 07:37:08;;;;;;;3.93;3.23;;;23.40;99.90;;;;;;6215933;23;20420;-83
2021/06/28 07:39:35;;;;;;;3.70;3.40;;;23.40;99.90;;;;;;6216806;23;20413;-86
2021/06/28 07:42:03;;;;;;;3.67;3.47;;;23.50;99.90;;;;;;6215274;23;20747;-84
2021/06/28 07:44:30;;;;;;;3.20;3.00;;;23.60;99.90;;;;;;6214879;23;20403;-85
2021/06/28 07:46:56;;;;;;;3.30;3.10;;;23.70;99.90;;;;;;6215480;23;20403;-85
2021/06/28 07:49:25;;;;;;;3.47;3.27;;;23.80;99.90;;;;;;6216241;23;20415;-86
2021/06/28 07:51:52;;;;;;;3.30;3.13;;;23.90;99.90;;;;;;6216379;23;20427;-84
2021/06/28 07:54:18;;;;;;;4.07;3.37;;;23.90;99.90;;;;;;6215850;23;20410;-86
2021/06/28 07:56:45;;;;;;;3.87;3.60;;;24.00;99.90;;;;;;6217088;23;20496;-85
2021/06/28 07:59:12;;;;;;;3.40;3.00;;;24.00;99.90;;;;;;6218151;23;20801;-83
2021/06/28 08:01:39;;;;;;;3.50;3.30;;;24.00;99.90;;;;;;6217238;23;20975;-84
2021/06/28 08:04:06;;;;;;;3.43;3.23;;;24.00;99.90;;;;;;6217171;23;20720;-84
2021/06/28 08:06:35;;;;;;;3.27;3.07;;;24.10;99.90;;;;;;6217396;23;20901;-84
2021/06/28 08:09:02;;;;;;;2.67;2.50;;;24.10;99.90;;;;;;6222872;23;20412;-84
2021/06/28 08:11:29;;;;;;;2.57;2.47;;;24.10;99.90;;;;;;6225649;23;20435;-84
2021/06/28 08:13:56;;;;;;;3.83;3.63;;;24.30;99.90;;;;;;6223236;23;20505;-84
2021/06/28 08:16:24;;;;;;;3.40;3.10;;;24.30;99.90;;;;;;6218711;23;20881;-85
2021/06/28 08:18:53;;;;;;;3.30;3.10;;;24.50;99.90;;;;;;6218555;23;20394;-85
2021/06/28 08:21:21;;;;;;;3.17;2.90;;;24.60;99.90;;;;;;6223512;23;20517;-84
2021/06/28 08:23:49;;;;;;;3.53;3.17;;;24.80;99.90;;;;;;6226079;23;20431;-83
2021/06/28 08:26:16;;;;;;;2.70;2.57;;;24.90;99.90;;;;;;6221262;23;20407;-83
2021/06/28 08:28:45;;;;;;;3.70;3.50;;;25.10;99.90;;;;;;6223527;23;20454;-84
2021/06/28 08:31:13;;;;;;;2.77;2.60;;;25.20;99.20;;;;;;6225628;23;20634;-84
2021/06/28 08:33:39;;;;;;;2.80;2.70;;;25.20;98.60;;;;;;6222959;23;20410;-84
2021/06/28 08:36:07;;;;;;;3.07;2.87;;;25.30;98.80;;;;;;6221728;23;20933;-85
2021/06/28 08:38:34;;;;;;;2.60;2.50;;;25.40;99.60;;;;;;6226821;23;20407;-86
2021/06/28 08:41:02;;;;;;;2.27;2.17;;;25.50;98.40;;;;;;6226917;23;20473;-84
2021/06/28 08:43:29;;;;;;;3.20;3.00;;;25.50;98.60;;;;;;6223221;23;20403;-84
2021/06/28 08:45:57;;;;;;;3.30;3.00;;;25.70;99.30;;;;;;6226637;23;20479;-84
2021/06/28 08:48:24;;;;;;;2.83;2.70;;;25.80;99.10;;;;;;6231810;23;20791;-85
2021/06/28 08:50:55;;;;;;;3.57;3.37;;;26.00;98.40;;;;;;6227325;23;20427;-84
2021/06/28 08:53:22;;;;;;;3.00;2.90;;;26.10;98.20;;;;;;6238731;23;20448;-84
2021/06/28 08:55:50;;;;;;;3.23;3.13;;;26.20;97.60;;;;;;6237456;23;20488;-83
2021/06/28 14:52:24;;;;;;;3.50;3.30;;;36.70;54.30;;;;;;5793096;24;20748;-87
2021/06/28 15:27:39;;;;;;;;;;;;;;;;;;;;;
2021/06/28 16:42:51;;;;;;;4.10;3.80;;;25.90;88.60;;;;;;5867021;24;20468;-86
2021/06/28 16:45:17;;;;;;;4.70;4.40;;;25.80;89.10;;;;;;5997891;23;21011;-84
2021/06/28 16:47:49;;;;;;;4.17;3.97;;;25.70;89.80;;;;;;6178215;23;20444;-84
2021/06/28 16:50:16;;;;;;;4.13;3.73;;;25.60;90.00;;;;;;6195555;23;20693;-83
2021/06/28 16:52:43;;;;;;;3.77;3.57;;;25.60;90.30;;;;;;6193281;23;20502;-81
2021/06/28 16:55:12;;;;;;;4.87;4.43;;;25.50;90.50;;;;;;6188175;23;20411;-84
2021/06/28 16:57:39;;;;;;;4.10;3.90;;;25.50;90.80;;;;;;6187160;23;20422;-83
2021/06/28 17:00:09;;;;;;;5.23;4.87;;;25.40;91.20;;;;;;6187828;23;20420;-85
2021/06/28 17:02:36;;;;;;;3.97;3.77;;;25.30;91.50;;;;;;6185929;23;20451;-85
2021/06/28 17:05:03;;;;;;;3.70;3.50;;;25.30;92.00;;;;;;6187524;23;21006;-81
2021/06/28 17:07:31;;;;;;;4.53;4.23;;;25.30;92.50;;;;;;6187785;23;20444;-84
2021/06/28 17:09:58;;;;;;;4.50;4.20;;;25.30;92.40;;;;;;6187999;23;20735;-84
2021/06/28 17:12:25;;;;;;;4.07;3.77;;;25.10;92.40;;;;;;6186682;23;21002;-84
2021/06/28 17:14:52;;;;;;;4.00;3.73;;;25.10;92.60;;;;;;6187571;23;20403;-85
2021/06/28 17:17:20;;;;;;;4.70;4.50;;;25.10;92.80;;;;;;6187611;23;20418;-84
2021/06/28 17:19:46;;;;;;;4.40;4.10;;;25.00;93.10;;;;;;6186905;23;20417;-84
2021/06/28 17:22:13;;;;;;;4.77;4.30;;;25.00;93.20;;;;;;6188928;23;20446;-82
2021/06/28 17:24:40;;;;;;;4.23;3.93;;;25.00;93.40;;;;;;6189104;23;20500;-83
2021/06/28 17:27:07;;;;;;;4.90;4.57;;;24.90;93.70;;;;;;6203149;23;20443;-84
2021/06/28 17:29:34;;;;;;;4.43;4.13;;;24.80;94.00;;;;;;6219162;23;20485;-85
2021/06/28 17:32:01;;;;;;;4.70;4.40;;;24.80;94.40;;;;;;6219163;23;20429;-84
2021/06/28 17:34:29;;;;;;;4.33;4.03;;;24.80;95.00;;;;;;6218911;23;21057;-83
2021/06/28 17:36:56;;;;;;;10.17;4.43;;;24.70;95.80;;;;;;6219537;23;20898;-85
2021/06/28 17:39:24;;;;;;;4.47;4.27;;;24.60;96.50;;;;;;6220814;23;20414;-86
2021/06/28 17:41:52;;;;;;;4.70;4.40;;;24.60;97.10;;;;;;6219716;23;20451;-86
2021/06/28 17:44:19;;;;;;;4.80;4.50;;;24.40;98.10;;;;;;6220320;23;20452;-86
2021/06/28 17:46:46;;;;;;;5.03;4.60;;;24.20;98.80;;;;;;6220379;23;20426;-84
2021/06/28 17:49:13;;;;;;;4.77;4.40;;;23.90;99.10;;;;;;6220258;23;20476;-87
2021/06/28 17:51:41;;;;;;;5.60;5.20;;;23.60;99.90;;;;;;6221296;23;20449;-86
2021/06/28 17:54:10;;;;;;;4.87;4.57;;;22.90;99.90;;;;;;6222100;23;20480;-85
2021/06/28 17:57:26;;;;;;;5.90;5.00;;;22.50;99.90;;;;;;6221296;23;20419;-86
2021/06/28 18:00:36;;;;;;;4.30;4.00;;;21.80;99.90;;;;;;6073289;23;20488;-85
2021/06/28 18:03:09;;;;;;;4.53;4.13;;;21.50;99.90;;;;;;6151426;23;20461;-85
2021/06/28 18:05:36;;;;;;;4.47;4.13;;;21.20;99.90;;;;;;6222199;23;20398;-86
2021/06/28 18:08:05;;;;;;;3.20;2.90;;;21.00;99.90;;;;;;6219756;23;20728;-86
2021/06/28 18:10:32;;;;;;;3.90;3.50;;;20.60;99.90;;;;;;6219918;23;20413;-87
2021/06/28 18:12:59;;;;;;;4.93;3.50;;;20.10;99.90;;;;;;6219947;23;20493;-85
2021/06/28 18:15:28;;;;;;;3.93;3.17;;;19.50;99.90;;;;;;6219730;23;20456;-84
2021/06/28 18:18:02;;;;;;;5.10;4.40;;;19.00;99.90;;;;;;6225892;23;20479;-85
2021/06/28 18:42:31;;;;;;;0.30;0.20;;;17.30;99.90;;;;;;6225318;23;20469;-85
2021/06/28 18:48:25;;;;;;;0.30;0.20;;;17.10;99.90;;;;;;6170243;23;20400;-84
2021/06/28 18:51:08;;;;;;;0.30;0.20;;;17.10;99.90;;;;;;6220167;23;20772;-85
2021/06/28 18:54:24;;;;;;;0.30;0.10;;;17.20;99.90;;;;;;6220400;23;20387;-85
2021/06/28 18:56:53;;;;;;;0.30;0.23;;;17.10;99.90;;;;;;6223773;23;20400;-84
2021/06/28 18:59:48;;;;;;;1.60;1.50;;;17.20;99.90;;;;;;6220852;23;20929;-84
2021/06/28 19:15:47;;;;;;;;;;;;;;;;;;;;;
2021/06/28 19:18:20;;;;;;;0.30;0.10;;;17.20;99.90;;;;;;6212932;23;20495;-83
2021/06/28 19:20:48;;;;;;;0.30;0.20;;;17.30;99.90;;;;;;6218948;23;20423;-82
2021/06/28 19:23:41;;;;;;;0.30;0.20;;;17.30;99.90;;;;;;6218651;23;20522;-83
2021/06/28 19:26:22;;;;;;;0.37;0.37;;;17.40;99.90;;;;;;6210372;23;20443;-84
2021/06/28 19:28:57;;;;;;;0.30;0.10;;;17.40;99.90;;;;;;6218784;23;20377;-82
2021/06/28 19:34:19;;;;;;;0.30;0.10;;;17.40;99.90;;;;;;6216289;23;20516;-81
2021/06/28 19:36:46;;;;;;;0.30;0.20;;;17.40;99.90;;;;;;6218343;23;20468;-83
2021/06/28 19:39:23;;;;;;;0.30;0.20;;;17.50;99.90;;;;;;6218472;23;20451;-82
2021/06/28 19:41:57;;;;;;;0.30;0.30;;;17.50;99.90;;;;;;6218121;23;20461;-82
2021/06/28 19:44:45;;;;;;;0.30;0.10;;;17.50;99.90;;;;;;6217968;23;20430;-82
2021/06/28 19:47:14;;;;;;;0.30;0.17;;;17.50;99.90;;;;;;6218096;23;20404;-82
2021/06/28 19:49:42;;;;;;;0.30;0.10;;;17.40;99.90;;;;;;6217005;23;20422;-81
2021/06/28 19:52:10;;;;;;;0.30;0.20;;;17.40;99.90;;;;;;6216581;23;20458;-81
2021/06/28 19:54:37;;;;;;;0.97;0.97;;;17.40;99.90;;;;;;6216668;23;20420;-82
2021/06/28 19:57:15;;;;;;;;;;;;;;;;;;;;;
2021/06/28 19:59:44;;;;;;;0.30;0.20;;;17.50;99.90;;;;;;6215278;23;20989;-83
2021/06/28 20:02:15;;;;;;;0.27;0.10;;;17.50;99.90;;;;;;6218234;23;20509;-83
2021/06/28 20:04:47;;;;;;;0.30;0.20;;;17.60;99.90;;;;;;6217848;23;20452;-83
2021/06/28 20:07:16;;;;;;;0.30;0.20;;;17.60;99.90;;;;;;6217201;23;20423;-81
2021/06/28 20:09:48;;;;;;;0.30;0.20;;;17.70;99.90;;;;;;6222507;23;20471;-83
2021/06/28 20:12:31;;;;;;;0.27;0.10;;;17.70;99.90;;;;;;6222351;23;20480;-83
2021/06/28 20:15:03;;;;;;;0.30;0.27;;;17.70;99.90;;;;;;6223727;23;20392;-83
2021/06/28 20:17:41;;;;;;;0.30;0.10;;;17.50;99.90;;;;;;6229503;23;20430;-82
2021/06/28 20:20:25;;;;;;;0.30;0.10;;;17.20;99.90;;;;;;6228578;23;20402;-82
2021/06/28 20:23:09;;;;;;;;;;;;;;;;;;;;;
2021/06/28 20:25:41;;;;;;;0.30;0.20;;;17.00;99.90;;;;;;6215917;23;20443;-84
2021/06/28 20:28:16;;;;;;;0.30;0.23;;;16.90;99.90;;;;;;6221211;23;20395;-83
2021/06/28 20:30:57;;;;;;;0.30;0.10;;;16.90;99.90;;;;;;6221404;23;20504;-83
2021/06/28 20:39:26;;;;;;;0.30;0.20;;;16.70;99.90;;;;;;6216695;23;20430;-83
2021/06/28 20:42:31;;;;;;;;;;;;;;;;;;;;;
2021/06/28 20:45:08;;;;;;;;;;;;;;;;;;;;;
2021/06/28 20:47:42;;;;;;;0.30;0.20;;;17.00;99.90;;;;;;6221718;23;20436;-83
2021/06/28 20:50:15;;;;;;;0.30;0.10;;;17.10;99.90;;;;;;6222935;23;20467;-83
2021/06/28 20:52:53;;;;;;;0.30;0.20;;;17.20;99.90;;;;;;6223898;23;20442;-83
2021/06/28 20:55:35;;;;;;;0.30;0.20;;;17.30;99.90;;;;;;6222419;23;20494;-83
2021/06/28 20:58:09;;;;;;;0.30;0.10;;;17.30;99.90;;;;;;6222810;23;20470;-83
2021/06/28 21:00:36;;;;;;;0.30;0.20;;;17.40;99.90;;;;;;6221736;23;20934;-82
2021/06/28 21:03:04;;;;;;;0.30;0.30;;;17.50;99.90;;;;;;6222118;23;20444;-83
2021/06/28 21:05:33;;;;;;;0.30;0.10;;;17.50;99.90;;;;;;6222816;23;20479;-83
2021/06/28 21:08:01;;;;;;;0.30;0.30;;;17.60;99.90;;;;;;6222366;23;20442;-83
2021/06/28 21:10:28;;;;;;;0.40;0.30;;;17.70;99.90;;;;;;6223402;23;20420;-82
2021/06/28 21:12:54;;;;;;;0.30;0.10;;;17.70;99.90;;;;;;6222254;23;20408;-82
2021/06/28 21:15:21;;;;;;;0.30;0.10;;;17.80;99.90;;;;;;6222461;23;20409;-82
2021/06/28 21:17:48;;;;;;;0.30;0.20;;;17.70;99.90;;;;;;6221931;23;20473;-82
2021/06/28 21:20:16;;;;;;;0.20;0.10;;;17.70;99.90;;;;;;6222672;23;20408;-82
2021/06/28 21:22:43;;;;;;;0.30;0.10;;;17.70;99.90;;;;;;6222138;23;20454;-83
2021/06/28 21:25:12;;;;;;;0.30;0.20;;;17.70;99.90;;;;;;6221741;23;20412;-83
2021/06/28 21:27:41;;;;;;;0.30;0.10;;;17.70;99.90;;;;;;6222868;23;20422;-82
2021/06/28 21:30:09;;;;;;;0.27;0.20;;;17.80;99.90;;;;;;6222407;23;20506;-83
2021/06/28 21:32:36;;;;;;;0.30;0.20;;;17.80;99.90;;;;;;6222533;23;20428;-83
2021/06/28 21:35:04;;;;;;;1.70;1.70;;;17.90;99.90;;;;;;6221720;23;20415;-84
2021/06/28 21:37:30;;;;;;;0.30;0.10;;;17.90;99.90;;;;;;6222970;23;20510;-82
2021/06/28 21:39:57;;;;;;;0.30;0.20;;;18.00;99.90;;;;;;6222800;23;20409;-84
2021/06/28 21:42:25;;;;;;;0.33;0.23;;;18.00;99.90;;;;;;6222491;23;20756;-82
2021/06/28 21:44:52;;;;;;;0.50;0.50;;;18.00;99.90;;;;;;6222012;23;20408;-84
2021/06/28 21:47:19;;;;;;;0.30;0.10;;;17.90;99.90;;;;;;6222604;23;20426;-84
2021/06/28 21:49:46;;;;;;;0.30;0.10;;;18.00;99.90;;;;;;6221718;23;20906;-84
2021/06/28 21:52:13;;;;;;;0.30;0.20;;;18.00;99.90;;;;;;6221211;23;20437;-84
2021/06/28 21:54:41;;;;;;;0.30;0.20;;;18.00;99.90;;;;;;6221788;23;20490;-84
2021/06/28 21:57:08;;;;;;;0.30;0.20;;;18.00;99.90;;;;;;6223413;23;20891;-84
2021/06/28 21:59:36;;;;;;;0.30;0.20;;;18.10;99.90;;;;;;6222902;23;20728;-85
2021/06/28 22:02:03;;;;;;;0.30;0.20;;;18.20;99.90;;;;;;6222304;23;20944;-85
2021/06/28 22:04:36;;;;;;;0.23;0.10;;;18.20;99.90;;;;;;6221578;23;20447;-85
2021/06/28 22:07:03;;;;;;;0.30;0.20;;;18.30;99.90;;;;;;6223614;23;20396;-82
2021/06/28 22:09:32;;;;;;;0.30;0.23;;;18.30;99.90;;;;;;6224200;23;20735;-85
2021/06/28 22:12:00;;;;;;;0.30;0.20;;;18.30;99.90;;;;;;6223470;23;20440;-85
2021/06/28 22:14:28;;;;;;;0.30;0.20;;;18.30;99.90;;;;;;6223831;23;20459;-84